Time;durP1;ratioP1;P1;durP2;ratioP2;P2;SDS_P1;SDS_P2;PMS_P1;PMS_P2;Temp;Humidity;BMP_temperature;BMP_pressure;BME280_temperature;BME280_humidity;BME280_pressure;Samples;Min_cycle;Max_cycle;Signal;HPM_P1;HPM_P2
2023/06/07 00:00:44;;;;;;;20.75;14.23;;;;;;;-142.57;100.00;115900.28;5095165;28;20036;-82
2023/06/07 00:03:09;;;;;;;19.35;13.77;;;;;;;-142.57;100.00;115900.28;5095437;28;20040;-83
2023/06/07 00:05:37;;;;;;;19.35;12.90;;;;;;;-142.57;100.00;115900.28;5095284;28;20054;-83
2023/06/07 00:08:03;;;;;;;15.95;11.93;;;;;;;-142.57;100.00;115900.28;5077376;28;20036;-83
2023/06/07 00:10:28;;;;;;;15.20;11.30;;;;;;;-142.57;100.00;115900.28;5077050;28;20173;-81
2023/06/07 00:12:54;;;;;;;15.30;11.15;;;;;;;-142.57;100.00;115900.28;5095316;28;20472;-81
2023/06/07 00:15:20;;;;;;;18.40;10.60;;;;;;;-142.57;100.00;115900.28;5095104;28;20027;-85
2023/06/07 00:17:45;;;;;;;14.82;11.02;;;;;;;-142.57;100.00;115900.28;5095281;28;20101;-82
2023/06/07 00:20:11;;;;;;;12.57;8.57;;;;;;;-142.57;100.00;115900.28;5095213;28;20521;-79
2023/06/07 00:22:38;;;;;;;12.43;7.53;;;;;;;-142.57;100.00;115900.28;5095035;28;20066;-82
2023/06/07 00:25:05;;;;;;;14.13;8.45;;;;;;;-142.57;100.00;115900.28;5094199;28;20046;-79
2023/06/07 00:27:31;;;;;;;12.60;7.20;;;;;;;-142.57;100.00;115900.28;5095131;28;20081;-81
2023/06/07 00:29:57;;;;;;;9.95;6.72;;;;;;;-142.57;100.00;115900.28;5094856;28;20032;-83
2023/06/07 00:32:22;;;;;;;11.02;5.95;;;;;;;-142.57;100.00;115900.28;5094898;28;20040;-82
2023/06/07 00:34:48;;;;;;;10.77;6.05;;;;;;;-142.57;100.00;115900.28;5095302;28;20536;-83
2023/06/07 00:37:14;;;;;;;8.93;5.72;;;;;;;-142.57;100.00;115900.28;5096065;28;20040;-82
2023/06/07 00:39:40;;;;;;;8.00;5.82;;;;;;;-142.57;100.00;115900.28;5092705;28;20085;-83
2023/06/07 00:42:06;;;;;;;10.23;5.53;;;;;;;-142.57;100.00;115900.28;5095544;28;20467;-84
2023/06/07 00:44:33;;;;;;;9.95;5.30;;;;;;;-142.57;100.00;115900.28;5076951;28;20040;-81
2023/06/07 00:46:59;;;;;;;7.40;4.88;;;;;;;-142.57;100.00;115900.28;5094529;28;20081;-82
2023/06/07 00:49:26;;;;;;;6.95;5.18;;;;;;;-142.57;100.00;115900.28;5094638;28;20400;-82
2023/06/07 00:51:52;;;;;;;7.97;3.78;;;;;;;-142.57;100.00;115900.28;5094705;28;20024;-83
2023/06/07 00:54:19;;;;;;;7.82;4.72;;;;;;;-142.57;100.00;115900.28;5094426;28;20090;-82
2023/06/07 00:56:49;;;;;;;5.97;4.55;;;;;;;-142.57;100.00;115900.28;5076302;28;20078;-84
2023/06/07 00:59:18;;;;;;;12.25;8.93;;;;;;;-142.57;100.00;115900.28;5076426;28;20409;-84
2023/06/07 01:01:44;;;;;;;15.65;10.93;;;;;;;-142.57;100.00;115900.28;5094031;28;20052;-82
2023/06/07 01:04:10;;;;;;;16.20;10.35;;;;;;;-142.57;100.00;115900.28;5093972;28;20036;-83
2023/06/07 01:06:37;;;;;;;18.77;11.82;;;;;;;-142.57;100.00;115900.28;5076221;28;20124;-82
2023/06/07 01:09:13;;;;;;;26.75;13.15;;;;;;;-142.57;100.00;115900.28;5076438;28;20061;-82
2023/06/07 01:11:42;;;;;;;21.88;15.30;;;;;;;-142.57;100.00;115900.28;5094244;28;20105;-82
2023/06/07 01:14:10;;;;;;;19.05;14.45;;;;;;;-142.57;100.00;115900.28;5094003;28;20032;-80
2023/06/07 01:16:37;;;;;;;20.00;15.10;;;;;;;-142.57;100.00;115900.28;5093919;28;20028;-82
2023/06/07 01:19:04;;;;;;;21.05;15.23;;;;;;;-142.57;100.00;115900.28;5094164;28;20456;-82
2023/06/07 01:21:36;;;;;;;26.48;16.23;;;;;;;-142.57;100.00;115900.28;5093955;28;20039;-81
2023/06/07 01:24:03;;;;;;;;;;;;;;;-142.57;100.00;115900.28;5094450;28;20206;-84
2023/06/07 01:26:28;;;;;;;23.38;16.02;;;;;;;-142.57;100.00;115900.28;5075805;28;19955;-83
2023/06/07 01:28:55;;;;;;;29.33;16.38;;;;;;;-142.57;100.00;115900.28;5076127;28;20115;-84
2023/06/07 01:31:22;;;;;;;29.10;16.65;;;;;;;-142.57;100.00;115900.28;5075351;28;20374;-82
2023/06/07 01:33:49;;;;;;;30.60;18.05;;;;;;;-142.57;100.00;115900.28;5075722;28;20043;-82
2023/06/07 01:36:16;;;;;;;26.45;17.98;;;;;;;-142.57;100.00;115900.28;5075523;28;20040;-83
2023/06/07 01:38:45;;;;;;;23.83;16.58;;;;;;;-142.57;100.00;115900.28;5077260;28;20036;-83
2023/06/07 01:41:15;;;;;;;26.50;17.90;;;;;;;-142.57;100.00;115900.28;5075496;28;20119;-84
2023/06/07 01:43:41;;;;;;;23.58;16.38;;;;;;;-142.57;100.00;115900.28;5093738;28;20483;-83
2023/06/07 01:46:07;;;;;;;28.75;17.23;;;;;;;-142.57;100.00;115900.28;5074626;28;20031;-80
2023/06/07 01:48:32;;;;;;;30.92;16.95;;;;;;;-142.57;100.00;115900.28;5093818;28;20500;-80
2023/06/07 01:50:58;;;;;;;28.63;17.08;;;;;;;-142.57;100.00;115900.28;5095438;28;20118;-82
2023/06/07 01:53:24;;;;;;;24.63;17.20;;;;;;;-142.57;100.00;115900.28;5094389;28;20028;-82
2023/06/07 01:56:01;;;;;;;22.38;16.10;;;;;;;-142.57;100.00;115900.28;5093814;28;20085;-80
2023/06/07 01:58:42;;;;;;;27.10;17.45;;;;;;;-142.57;100.00;115900.28;5074692;28;20036;-83
2023/06/07 02:01:18;;;;;;;25.23;16.30;;;;;;;-142.57;100.00;115900.28;5074739;28;20430;-82
2023/06/07 02:03:51;;;;;;;30.20;17.35;;;;;;;-142.57;100.00;115900.28;5075327;28;20036;-79
2023/06/07 02:06:24;;;;;;;23.87;16.80;;;;;;;-142.57;100.00;115900.28;5093180;28;20028;-81
2023/06/07 02:08:53;;;;;;;26.48;16.70;;;;;;;-142.57;100.00;115900.28;5093129;28;20068;-84
2023/06/07 02:11:20;;;;;;;26.05;16.95;;;;;;;-142.57;100.00;115900.28;5074280;28;20024;-81
2023/06/07 02:13:49;;;;;;;28.23;17.92;;;;;;;-142.57;100.00;115900.28;5093360;28;20059;-84
2023/06/07 02:16:15;;;;;;;30.92;17.67;;;;;;;-142.57;100.00;115900.28;5074601;28;20043;-81
2023/06/07 02:18:41;;;;;;;30.55;17.67;;;;;;;-142.57;100.00;115900.28;5092749;28;20036;-82
2023/06/07 02:21:08;;;;;;;32.50;17.33;;;;;;;-142.57;100.00;115900.28;5092570;28;20035;-81
2023/06/07 02:23:34;;;;;;;23.63;16.77;;;;;;;-142.57;100.00;115900.28;5093103;28;20122;-82
2023/06/07 02:26:00;;;;;;;26.80;18.15;;;;;;;-142.57;100.00;115900.28;5092757;28;20028;-83
2023/06/07 02:28:26;;;;;;;27.90;19.08;;;;;;;-142.57;100.00;115900.28;5074460;28;20039;-80
2023/06/07 02:30:55;;;;;;;31.92;18.48;;;;;;;-142.57;100.00;115900.28;5074422;28;20067;-84
2023/06/07 02:33:21;;;;;;;32.53;18.50;;;;;;;-142.57;100.00;115900.28;5092574;28;20032;-82
2023/06/07 02:35:48;;;;;;;26.83;18.08;;;;;;;-142.57;100.00;115900.28;5074070;28;20055;-83
2023/06/07 02:38:14;;;;;;;26.17;18.25;;;;;;;-142.57;100.00;115900.28;5092819;28;20032;-83
2023/06/07 02:40:39;;;;;;;24.98;17.52;;;;;;;-142.57;100.00;115900.28;5092461;28;20036;-82
2023/06/07 02:43:05;;;;;;;27.25;18.17;;;;;;;-142.57;100.00;115900.28;5092371;28;20032;-83
2023/06/07 02:45:31;;;;;;;24.70;18.00;;;;;;;-142.57;100.00;115900.28;5092339;28;20032;-83
2023/06/07 02:47:56;;;;;;;24.23;17.77;;;;;;;-142.57;100.00;115900.28;5092246;28;20032;-83
2023/06/07 02:50:23;;;;;;;32.55;17.33;;;;;;;-142.57;100.00;115900.28;5074481;28;20100;-79
2023/06/07 02:52:51;;;;;;;28.25;17.58;;;;;;;-142.57;100.00;115900.28;5074164;28;20039;-83
2023/06/07 02:55:17;;;;;;;24.95;16.27;;;;;;;-142.57;100.00;115900.28;5074374;28;20473;-82
2023/06/07 02:57:43;;;;;;;28.77;16.60;;;;;;;-142.57;100.00;115900.28;5092444;28;20111;-80
2023/06/07 03:00:16;;;;;;;28.77;15.93;;;;;;;-142.57;100.00;115900.28;5074153;28;20166;-82
2023/06/07 03:02:50;;;;;;;22.17;15.27;;;;;;;-142.57;100.00;115900.28;5074111;28;20575;-82
2023/06/07 03:05:15;;;;;;;25.70;15.95;;;;;;;-142.57;100.00;115900.28;5074365;28;20059;-80
2023/06/07 03:07:46;;;;;;;23.75;15.07;;;;;;;-142.57;100.00;115900.28;5074172;28;20560;-81
2023/06/07 03:10:12;;;;;;;25.30;15.18;;;;;;;-142.57;100.00;115900.28;5074131;28;20032;-82
2023/06/07 03:12:38;;;;;;;24.35;15.88;;;;;;;-142.57;100.00;115900.28;5074097;28;20031;-81
2023/06/07 03:15:05;;;;;;;25.42;17.25;;;;;;;-142.57;100.00;115900.28;5073894;28;20040;-81
2023/06/07 03:17:31;;;;;;;26.42;17.90;;;;;;;-142.57;100.00;115900.28;5074049;28;20038;-80
2023/06/07 03:19:58;;;;;;;32.55;19.00;;;;;;;-142.57;100.00;115900.28;5057238;28;20036;-80
2023/06/07 03:22:26;;;;;;;30.90;18.48;;;;;;;-142.57;100.00;115900.28;5074748;28;20366;-82
2023/06/07 03:24:54;;;;;;;28.17;18.08;;;;;;;-142.57;100.00;115900.28;5077687;28;20039;-83
2023/06/07 03:27:23;;;;;;;27.75;17.20;;;;;;;-142.57;100.00;115900.28;5078361;28;20134;-81
2023/06/07 03:29:51;;;;;;;37.40;18.23;;;;;;;-142.57;100.00;115900.28;5078078;28;20546;-80
2023/06/07 03:32:18;;;;;;;29.00;17.90;;;;;;;-142.57;100.00;115900.28;5083351;28;20040;-81
2023/06/07 03:34:45;;;;;;;25.75;16.88;;;;;;;-142.57;100.00;115900.28;5084658;28;20086;-83
2023/06/07 03:37:11;;;;;;;33.65;18.13;;;;;;;-142.57;100.00;115900.28;5077846;28;20404;-83
2023/06/07 03:39:38;;;;;;;28.60;17.13;;;;;;;-142.57;100.00;115900.28;5077916;28;20056;-82
2023/06/07 03:42:05;;;;;;;29.55;17.75;;;;;;;-142.57;100.00;115900.28;5077439;28;20186;-83
2023/06/07 03:44:31;;;;;;;25.25;16.83;;;;;;;-142.57;100.00;115900.28;5077791;28;20396;-83
2023/06/07 03:46:56;;;;;;;29.77;17.58;;;;;;;-142.57;100.00;115900.28;5077299;28;20052;-82
2023/06/07 03:49:22;;;;;;;28.80;17.98;;;;;;;-142.57;100.00;115900.28;5095578;28;20060;-84
2023/06/07 03:51:49;;;;;;;29.45;17.00;;;;;;;-142.57;100.00;115900.28;5077561;28;20443;-82
2023/06/07 03:54:15;;;;;;;25.92;16.80;;;;;;;-142.57;100.00;115900.28;5077422;28;20500;-82
2023/06/07 03:56:42;;;;;;;25.92;15.80;;;;;;;-142.57;100.00;115900.28;5077367;28;20044;-84
2023/06/07 03:59:12;;;;;;;24.40;16.30;;;;;;;-142.57;100.00;115900.28;5095357;28;20020;-83
2023/06/07 04:01:39;;;;;;;26.92;15.57;;;;;;;-142.57;100.00;115900.28;5077028;28;20048;-81
2023/06/07 04:04:05;;;;;;;27.25;15.18;;;;;;;-142.57;100.00;115900.28;5095204;28;20193;-83
2023/06/07 04:06:31;;;;;;;23.92;14.52;;;;;;;-142.57;100.00;115900.28;5095425;28;20055;-82
2023/06/07 04:08:59;;;;;;;20.70;13.15;;;;;;;-142.57;100.00;115900.28;5077251;28;20028;-80
2023/06/07 04:11:28;;;;;;;21.58;12.45;;;;;;;-142.57;100.00;115900.28;5077227;28;20040;-83
2023/06/07 04:13:54;;;;;;;22.70;12.80;;;;;;;-142.57;100.00;115900.28;5077139;28;20519;-80
2023/06/07 04:16:21;;;;;;;20.25;11.35;;;;;;;-142.57;100.00;115900.28;5076996;28;20055;-82
2023/06/07 04:18:49;;;;;;;19.75;11.43;;;;;;;-142.57;100.00;115900.28;5077760;28;20032;-82
2023/06/07 04:21:15;;;;;;;24.73;12.32;;;;;;;-142.57;100.00;115900.28;5080559;28;20101;-86
2023/06/07 04:23:43;;;;;;;18.60;11.18;;;;;;;-142.57;100.00;115900.28;5076913;28;20118;-82
2023/06/07 04:26:18;;;;;;;17.65;11.93;;;;;;;-142.57;100.00;115900.28;5076889;28;20078;-84
2023/06/07 04:28:45;;;;;;;17.95;10.73;;;;;;;-142.57;100.00;115900.28;5076764;28;20036;-83
2023/06/07 04:31:12;;;;;;;20.95;11.07;;;;;;;-142.57;100.00;115900.28;5076512;28;20040;-83
2023/06/07 04:33:39;;;;;;;15.40;10.55;;;;;;;-142.57;100.00;115900.28;5076007;28;20035;-84
2023/06/07 04:36:08;;;;;;;15.20;10.52;;;;;;;-142.57;100.00;115900.28;5076605;28;20032;-84
2023/06/07 04:38:39;;;;;;;16.92;11.15;;;;;;;-142.57;100.00;115900.28;5076422;28;20043;-82
2023/06/07 04:41:07;;;;;;;20.33;11.63;;;;;;;-142.57;100.00;115900.28;5076546;28;20093;-84
2023/06/07 04:43:42;;;;;;;16.30;10.55;;;;;;;-142.57;100.00;115900.28;5076395;28;20043;-81
2023/06/07 04:46:12;;;;;;;27.85;11.45;;;;;;;-142.57;100.00;115900.28;5093402;28;20040;-83
2023/06/07 04:48:41;;;;;;;24.23;10.82;;;;;;;-142.57;100.00;115900.28;5083506;28;20031;-86
2023/06/07 04:51:07;;;;;;;23.20;13.15;;;;;;;-142.57;100.00;115900.28;5111310;28;20597;-80
2023/06/07 04:53:42;;;;;;;19.20;10.52;;;;;;;-142.57;100.00;115900.28;5076002;28;20031;-82
2023/06/07 04:56:11;;;;;;;22.48;10.82;;;;;;;-142.57;100.00;115900.28;5075683;28;20039;-82
2023/06/07 04:58:40;;;;;;;18.45;10.38;;;;;;;-142.57;100.00;115900.28;5075920;28;20036;-83
2023/06/07 05:01:10;;;;;;;21.17;10.27;;;;;;;-142.57;100.00;115900.28;5093877;28;20074;-82
2023/06/07 05:03:42;;;;;;;16.25;10.68;;;;;;;-142.57;100.00;115900.28;5077976;28;20036;-83
2023/06/07 05:06:08;;;;;;;21.73;11.52;;;;;;;-142.57;100.00;115900.28;5079202;28;20477;-85
2023/06/07 05:08:34;;;;;;;20.67;11.85;;;;;;;-142.57;100.00;115900.28;5078892;28;20032;-84
2023/06/07 05:10:59;;;;;;;18.92;11.57;;;;;;;-142.57;100.00;115900.28;5080125;28;20028;-83
2023/06/07 05:13:26;;;;;;;24.48;12.63;;;;;;;-142.57;100.00;115900.28;5077867;28;20036;-85
2023/06/07 05:15:53;;;;;;;25.10;12.10;;;;;;;-142.57;100.00;115900.28;5077889;28;20059;-85
2023/06/07 05:18:19;;;;;;;21.58;12.85;;;;;;;-142.57;100.00;115900.28;5078675;28;20043;-87
2023/06/07 05:20:48;;;;;;;22.05;12.23;;;;;;;-142.57;100.00;115900.28;5077426;28;20036;-86
2023/06/07 05:23:16;;;;;;;14.90;11.38;;;;;;;-142.57;100.00;115900.28;5077803;28;20081;-87
2023/06/07 05:25:44;;;;;;;18.50;12.50;;;;;;;-142.57;100.00;115900.28;5077309;28;20059;-82
2023/06/07 05:28:11;;;;;;;20.23;12.48;;;;;;;-142.57;100.00;115900.28;5076981;28;20036;-87
2023/06/07 05:30:38;;;;;;;20.25;13.18;;;;;;;-142.57;100.00;115900.28;5075984;28;20024;-91
2023/06/07 05:33:10;;;;;;;21.92;13.75;;;;;;;-142.57;100.00;115900.28;5077324;28;20036;-83
2023/06/07 05:35:36;;;;;;;28.65;16.77;;;;;;;-142.57;100.00;115900.28;5098560;28;20038;-83
2023/06/07 05:38:02;;;;;;;28.73;18.95;;;;;;;-142.57;100.00;115900.28;5082391;28;20044;-85
2023/06/07 05:40:29;;;;;;;32.03;20.92;;;;;;;-142.57;100.00;115900.28;5101552;28;20028;-86
2023/06/07 05:42:56;;;;;;;33.47;21.30;;;;;;;-142.57;100.00;115900.28;5086751;28;20103;-78
2023/06/07 05:45:23;;;;;;;36.03;23.60;;;;;;;-142.57;100.00;115900.28;5084843;28;20063;-81
2023/06/07 05:47:49;;;;;;;40.33;23.42;;;;;;;-142.57;100.00;115900.28;5084094;28;20032;-83
2023/06/07 05:50:16;;;;;;;44.95;25.13;;;;;;;-142.57;100.00;115900.28;5078624;28;20040;-86
2023/06/07 05:52:43;;;;;;;48.70;26.88;;;;;;;-142.57;100.00;115900.28;5081622;28;20036;-83
2023/06/07 05:55:10;;;;;;;46.58;26.65;;;;;;;-142.57;100.00;115900.28;5103478;28;20099;-82
2023/06/07 05:57:37;;;;;;;52.63;28.48;;;;;;;-142.57;100.00;115900.28;5095719;28;20042;-89
2023/06/07 06:00:11;;;;;;;51.55;29.17;;;;;;;-142.57;100.00;115900.28;5096070;28;20040;-87
2023/06/07 06:02:45;;;;;;;58.60;31.35;;;;;;;-142.57;100.00;115900.28;5095557;28;20040;-83
2023/06/07 06:05:11;;;;;;;53.83;30.35;;;;;;;-142.57;100.00;115900.28;5094775;28;20114;-86
2023/06/07 06:07:37;;;;;;;54.40;30.42;;;;;;;-142.57;100.00;115900.28;5095578;28;20480;-90
2023/06/07 06:10:06;;;;;;;60.55;29.00;;;;;;;-142.57;100.00;115900.28;5096009;28;20040;-85
2023/06/07 06:12:32;;;;;;;46.92;28.33;;;;;;;-142.57;100.00;115900.28;5076313;28;20067;-90
2023/06/07 06:14:59;;;;;;;46.67;28.58;;;;;;;-142.57;100.00;115900.28;5094544;28;20055;-86
2023/06/07 06:17:25;;;;;;;56.53;30.90;;;;;;;-142.57;100.00;115900.28;5093845;28;20044;-85
2023/06/07 06:19:50;;;;;;;45.67;28.77;;;;;;;-142.57;100.00;115900.28;5093204;28;20024;-80
2023/06/07 06:22:16;;;;;;;46.45;28.45;;;;;;;-142.57;100.00;115900.28;5074454;28;20528;-85
2023/06/07 06:24:42;;;;;;;56.88;28.90;;;;;;;-142.57;100.00;115900.28;5093048;28;20028;-82
2023/06/07 06:27:09;;;;;;;57.58;29.40;;;;;;;-142.57;100.00;115900.28;5094014;28;20392;-84
2023/06/07 06:29:35;;;;;;;52.72;28.63;;;;;;;-142.57;100.00;115900.28;5093850;28;20032;-86
2023/06/07 06:32:00;;;;;;;50.00;28.38;;;;;;;-142.57;100.00;115900.28;5093309;28;20046;-81
2023/06/07 06:34:28;;;;;;;46.17;26.70;;;;;;;-142.57;100.00;115900.28;5093727;28;20081;-84
2023/06/07 06:36:54;;;;;;;50.97;27.50;;;;;;;-142.57;100.00;115900.28;5097722;28;20035;-82
2023/06/07 06:39:19;;;;;;;47.55;28.00;;;;;;;-142.57;100.00;115900.28;5093460;28;20428;-83
2023/06/07 06:41:46;;;;;;;48.00;27.25;;;;;;;-142.57;100.00;115900.28;5093738;28;20040;-84
2023/06/07 06:44:18;;;;;;;54.63;27.25;;;;;;;-142.57;100.00;115900.28;5075078;28;20031;-86
2023/06/07 06:46:43;;;;;;;51.75;26.88;;;;;;;-142.57;100.00;115900.28;5075708;28;20106;-84
2023/06/07 06:49:09;;;;;;;46.30;27.80;;;;;;;-142.57;100.00;115900.28;5075795;28;20496;-88
2023/06/07 06:51:35;;;;;;;47.65;26.58;;;;;;;-142.57;100.00;115900.28;5093069;28;20032;-84
2023/06/07 06:54:00;;;;;;;47.20;27.73;;;;;;;-142.57;100.00;115900.28;5093647;28;20043;-86
2023/06/07 06:56:26;;;;;;;45.97;25.33;;;;;;;-142.57;100.00;115900.28;5058349;28;20067;-84
2023/06/07 06:58:52;;;;;;;47.80;26.75;;;;;;;-142.57;100.00;115900.28;5113903;28;20390;-85
2023/06/07 07:01:18;;;;;;;45.83;25.33;;;;;;;-142.57;100.00;115900.28;5095820;28;20054;-83
2023/06/07 07:03:44;;;;;;;50.67;28.17;;;;;;;-142.57;100.00;115900.28;5114641;28;20092;-86
2023/06/07 07:06:09;;;;;;;47.85;28.50;;;;;;;-142.57;100.00;115900.28;5102894;28;20028;-84
2023/06/07 07:08:36;;;;;;;44.38;26.88;;;;;;;-142.57;100.00;115900.28;5076069;28;20031;-84
2023/06/07 07:11:02;;;;;;;43.97;25.95;;;;;;;-142.57;100.00;115900.28;5103095;28;20035;-87
2023/06/07 07:13:27;;;;;;;39.03;26.20;;;;;;;-142.57;100.00;115900.28;5079762;28;20400;-83
2023/06/07 07:15:53;;;;;;;41.60;26.20;;;;;;;-142.57;100.00;115900.28;5098906;28;20484;-85
2023/06/07 07:18:18;;;;;;;43.38;25.30;;;;;;;-142.57;100.00;115900.28;5099283;28;20054;-86
2023/06/07 07:20:45;;;;;;;41.00;24.95;;;;;;;-142.57;100.00;115900.28;5100052;28;20511;-82
2023/06/07 07:23:11;;;;;;;44.97;26.73;;;;;;;-142.57;100.00;115900.28;5106369;28;20092;-83
2023/06/07 07:25:37;;;;;;;44.67;26.52;;;;;;;-142.57;100.00;115900.28;5117242;28;20034;-84
2023/06/07 07:28:03;;;;;;;44.63;25.88;;;;;;;-142.57;100.00;115900.28;5116705;28;20059;-85
2023/06/07 07:30:29;;;;;;;43.08;26.17;;;;;;;-142.57;100.00;115900.28;5095748;28;20048;-87
2023/06/07 07:32:57;;;;;;;40.53;26.20;;;;;;;-142.57;100.00;115900.28;5091229;28;20036;-86
2023/06/07 07:35:23;;;;;;;40.38;25.25;;;;;;;-142.57;100.00;115900.28;5099236;28;20027;-85
2023/06/07 07:37:50;;;;;;;45.38;26.88;;;;;;;-142.57;100.00;115900.28;5109621;28;20051;-87
2023/06/07 07:40:15;;;;;;;47.15;26.58;;;;;;;-142.57;100.00;115900.28;5101265;28;20040;-86
2023/06/07 07:42:41;;;;;;;47.08;26.92;;;;;;;-142.57;100.00;115900.28;5106081;28;20445;-82
2023/06/07 07:45:07;;;;;;;42.85;27.98;;;;;;;-142.57;100.00;115900.28;5103714;28;20031;-90
2023/06/07 07:47:33;;;;;;;42.67;26.77;;;;;;;-142.57;100.00;115900.28;5094675;28;20517;-83
2023/06/07 07:50:00;;;;;;;45.22;27.20;;;;;;;-142.57;100.00;115900.28;5113469;28;20114;-88
2023/06/07 07:52:26;;;;;;;46.55;27.80;;;;;;;-142.57;100.00;115900.28;5112744;28;20023;-85
2023/06/07 07:54:54;;;;;;;47.33;27.90;;;;;;;-142.57;100.00;115900.28;5112891;28;20031;-89
2023/06/07 07:57:20;;;;;;;48.15;27.25;;;;;;;-142.57;100.00;115900.28;5105325;28;20065;-84
2023/06/07 07:59:45;;;;;;;44.05;26.17;;;;;;;-142.57;100.00;115900.28;5110714;28;20415;-87
2023/06/07 08:02:11;;;;;;;42.95;27.17;;;;;;;-142.57;100.00;115900.28;5104143;28;20032;-86
2023/06/07 08:04:36;;;;;;;46.33;26.40;;;;;;;-142.57;100.00;115900.28;5093000;28;20491;-83
2023/06/07 08:07:05;;;;;;;45.15;27.45;;;;;;;-142.57;100.00;115900.28;5092439;28;20071;-84
2023/06/07 08:09:30;;;;;;;39.95;24.77;;;;;;;-142.57;100.00;115900.28;5101229;28;20527;-84
2023/06/07 08:11:56;;;;;;;39.47;26.73;;;;;;;-142.57;100.00;115900.28;5064572;28;20036;-86
2023/06/07 08:14:22;;;;;;;43.05;26.80;;;;;;;-142.57;100.00;115900.28;5097401;28;20028;-88
2023/06/07 08:16:48;;;;;;;43.10;27.20;;;;;;;-142.57;100.00;115900.28;5114560;28;20452;-86
2023/06/07 08:19:13;;;;;;;43.55;25.73;;;;;;;-142.57;100.00;115900.28;5116895;28;20487;-86
2023/06/07 08:21:43;;;;;;;40.72;26.67;;;;;;;-142.57;100.00;115900.28;5095489;28;20028;-85
2023/06/07 08:24:09;;;;;;;41.13;26.63;;;;;;;-142.57;100.00;115900.28;5096223;28;20201;-84
2023/06/07 08:26:34;;;;;;;39.55;26.48;;;;;;;-142.57;100.00;115900.28;5113103;28;20396;-84
2023/06/07 08:29:00;;;;;;;35.60;23.67;;;;;;;-142.57;100.00;115900.28;5106980;28;20030;-85
2023/06/07 08:31:27;;;;;;;35.42;23.02;;;;;;;-142.57;100.00;115900.28;5107547;28;20119;-86
2023/06/07 08:33:52;;;;;;;42.58;25.45;;;;;;;-142.57;100.00;115900.28;5103212;28;20046;-82
2023/06/07 08:36:18;;;;;;;37.35;25.58;;;;;;;-142.57;100.00;115900.28;5097427;28;20040;-86
2023/06/07 08:38:43;;;;;;;37.65;25.63;;;;;;;-142.57;100.00;115900.28;5102097;28;20068;-87
2023/06/07 08:41:10;;;;;;;41.08;26.35;;;;;;;-142.57;100.00;115900.28;5099998;28;20064;-87
2023/06/07 08:43:38;;;;;;;39.38;25.58;;;;;;;-142.57;100.00;115900.28;5102565;28;20052;-84
2023/06/07 08:46:04;;;;;;;45.53;28.65;;;;;;;-142.57;100.00;115900.28;5112821;28;20059;-88
2023/06/07 08:48:32;;;;;;;58.38;29.10;;;;;;;-142.57;100.00;115900.28;5118948;28;20465;-88
2023/06/07 08:51:01;;;;;;;43.72;27.75;;;;;;;-142.57;100.00;115900.28;5114935;28;20134;-85
2023/06/07 08:53:41;;;;;;;45.70;27.80;;;;;;;-142.57;100.00;115900.28;5103839;28;20031;-85
2023/06/07 08:56:08;;;;;;;43.50;25.70;;;;;;;-142.57;100.00;115900.28;5087402;28;20036;-86
2023/06/07 08:58:35;;;;;;;37.15;24.77;;;;;;;-142.57;100.00;115900.28;5112322;28;20024;-86
2023/06/07 09:01:01;;;;;;;36.47;23.02;;;;;;;-142.57;100.00;115900.28;5111210;28;20040;-90
2023/06/07 09:03:27;;;;;;;35.75;23.67;;;;;;;-142.57;100.00;115900.28;5107972;28;20169;-84
2023/06/07 09:05:55;;;;;;;38.90;22.50;;;;;;;-142.57;100.00;115900.28;5100764;28;20036;-86
2023/06/07 09:08:21;;;;;;;35.10;23.33;;;;;;;-142.57;100.00;115900.28;5094415;28;20119;-82
2023/06/07 09:10:47;;;;;;;41.08;23.65;;;;;;;-142.57;100.00;115900.28;5103728;28;20063;-82
2023/06/07 09:13:19;;;;;;;33.28;20.30;;;;;;;-142.57;100.00;115900.28;5101757;28;20116;-84
2023/06/07 09:15:49;;;;;;;32.05;21.52;;;;;;;-142.57;100.00;115900.28;5112326;28;20032;-83
2023/06/07 09:18:14;;;;;;;29.33;20.83;;;;;;;-142.57;100.00;115900.28;5109397;28;20024;-83
2023/06/07 09:20:40;;;;;;;37.05;19.92;;;;;;;-142.57;100.00;115900.28;5116325;28;20042;-86
2023/06/07 09:23:13;;;;;;;32.60;21.67;;;;;;;-142.57;100.00;115900.28;5110225;28;20035;-82
2023/06/07 09:25:38;;;;;;;;;;;;;;;-142.57;100.00;115900.28;5114626;28;20500;-87
2023/06/07 09:28:10;;;;;;;34.72;19.58;;;;;;;-142.57;100.00;115900.28;5103657;28;19969;-83
2023/06/07 09:30:50;;;;;;;33.03;20.57;;;;;;;-142.57;100.00;115900.28;5106810;28;20061;-82
2023/06/07 09:33:29;;;;;;;34.78;21.77;;;;;;;-142.57;100.00;115900.28;5111280;28;20031;-82
2023/06/07 09:36:03;;;;;;;38.63;21.67;;;;;;;-142.57;100.00;115900.28;5104836;28;20035;-81
2023/06/07 09:38:29;;;;;;;30.67;21.23;;;;;;;-142.57;100.00;115900.28;5111928;28;20043;-82
2023/06/07 09:40:57;;;;;;;36.33;20.73;;;;;;;-142.57;100.00;115900.28;5114193;28;20024;-87
2023/06/07 09:43:23;;;;;;;32.83;19.88;;;;;;;-142.57;100.00;115900.28;5096981;28;20039;-82
2023/06/07 09:45:53;;;;;;;32.17;19.58;;;;;;;-142.57;100.00;115900.28;5110804;28;20032;-86
2023/06/07 09:48:19;;;;;;;30.55;19.13;;;;;;;-142.57;100.00;115900.28;5111426;28;20091;-83
2023/06/07 09:50:56;;;;;;;28.23;16.77;;;;;;;-142.57;100.00;115900.28;5097702;28;20392;-87
2023/06/07 09:53:22;;;;;;;24.15;14.57;;;;;;;-142.57;100.00;115900.28;5108582;28;20123;-81
2023/06/07 09:55:48;;;;;;;26.17;15.68;;;;;;;-142.57;100.00;115900.28;5100894;28;20077;-83
2023/06/07 09:58:23;;;;;;;24.52;16.55;;;;;;;-142.57;100.00;115900.28;5105066;28;20038;-85
2023/06/07 10:00:52;;;;;;;25.60;16.52;;;;;;;-142.57;100.00;115900.28;5095458;28;20047;-85
2023/06/07 10:03:18;;;;;;;23.20;16.35;;;;;;;-142.57;100.00;115900.28;5108314;28;20110;-86
2023/06/07 10:05:43;;;;;;;26.27;17.80;;;;;;;-142.57;100.00;115900.28;5087983;28;20043;-86
2023/06/07 10:08:10;;;;;;;23.52;16.08;;;;;;;-142.57;100.00;115900.28;5106239;28;20028;-88
2023/06/07 10:10:40;;;;;;;25.75;17.23;;;;;;;-142.57;94.76;115900.28;5092143;28;20111;-89
2023/06/07 10:13:05;;;;;;;30.73;15.77;;;;;;;-142.57;87.67;115900.28;5110495;28;20092;-88
2023/06/07 10:15:33;;;;;;;29.25;16.30;;;;;;;-142.57;84.86;115900.28;5106890;28;20112;-86
2023/06/07 10:18:36;;;;;;;31.42;16.30;;;;;;;-142.57;78.74;115900.28;5086260;28;20044;-83
2023/06/07 10:21:12;;;;;;;32.47;16.23;;;;;;;-142.57;77.68;115900.28;5106143;28;20038;-86
2023/06/07 10:23:47;;;;;;;31.52;17.30;;;;;;;-142.57;77.76;115900.28;5106971;28;20055;-80
2023/06/07 10:26:25;;;;;;;23.75;15.85;;;;;;;-142.57;77.10;115900.28;5093255;28;20036;-83
2023/06/07 10:28:53;;;;;;;22.70;14.82;;;;;;;-142.57;74.41;115900.28;5104454;28;20068;-86
2023/06/07 10:31:26;;;;;;;24.85;15.00;;;;;;;-142.57;75.64;115900.28;5065411;28;20044;-87
2023/06/07 10:33:55;;;;;;;29.25;17.77;;;;;;;-142.57;71.05;115900.28;5086212;28;20028;-89
2023/06/07 10:36:23;;;;;;;28.63;17.50;;;;;;;-142.57;70.92;115900.28;5115973;28;20016;-85
2023/06/07 10:38:51;;;;;;;30.70;19.45;;;;;;;-142.57;68.89;115900.28;5120119;28;20099;-88
2023/06/07 10:41:17;;;;;;;34.42;19.77;;;;;;;-142.57;68.94;115900.28;5111677;28;20043;-84
2023/06/07 10:43:46;;;;;;;26.45;18.65;;;;;;;-142.57;65.94;115900.28;5088279;28;20032;-88
2023/06/07 10:46:23;;;;;;;28.48;17.65;;;;;;;-142.57;66.85;115900.28;5111552;28;20044;-87
2023/06/07 10:48:52;;;;;;;41.55;20.02;;;;;;;-142.57;69.95;115900.28;5097205;28;20028;-88
2023/06/07 10:51:41;;;;;;;27.70;18.17;;;;;;;-142.57;68.85;115900.28;5095392;28;20058;-82